createdAt,value
2019-05-06T00:01:04.764Z,5.83
2019-05-06T00:03:34.382Z,5.40
2019-05-06T00:06:03.953Z,5.65
2019-05-06T00:08:34.547Z,5.70
2019-05-06T00:11:02.363Z,6.00
2019-05-06T00:13:30.618Z,5.72
2019-05-06T00:15:58.856Z,5.90
2019-05-06T00:18:27.112Z,5.80
2019-05-06T00:20:57.543Z,6.05
2019-05-06T00:23:27.018Z,6.17
2019-05-06T00:26:28.337Z,6.80
2019-05-06T00:28:51.234Z,6.15
2019-05-06T00:31:21.155Z,6.65
2019-05-06T00:33:49.428Z,7.15
2019-05-06T00:36:19.314Z,6.47
2019-05-06T00:38:54.603Z,7.10
2019-05-06T00:41:38.521Z,6.03
2019-05-06T00:44:06.769Z,5.72
2019-05-06T00:46:35.036Z,6.40
2019-05-06T00:49:03.887Z,6.50
2019-05-06T00:51:33.926Z,6.03
2019-05-06T00:54:04.132Z,7.05
2019-05-06T00:56:33.987Z,6.80
2019-05-06T00:59:03.684Z,7.20
2019-05-06T01:01:34.260Z,6.72
2019-05-06T01:04:04.581Z,7.85
2019-05-06T01:06:34.429Z,6.60
2019-05-06T01:09:04.567Z,6.45
2019-05-06T01:11:34.606Z,5.90
2019-05-06T01:14:10.651Z,7.10
2019-05-06T01:16:38.951Z,6.05
2019-05-06T01:19:07.205Z,6.40
2019-05-06T01:21:35.467Z,8.90
2019-05-06T01:24:04.129Z,6.95
2019-05-06T01:26:33.805Z,6.95
2019-05-06T01:29:03.885Z,7.00
2019-05-06T01:31:40.568Z,8.60
2019-05-06T01:34:04.286Z,6.90
2019-05-06T01:36:34.366Z,6.70
2019-05-06T01:39:06.886Z,6.95
2019-05-06T01:41:48.961Z,7.15
2019-05-06T01:44:17.231Z,7.47
2019-05-06T01:46:45.479Z,8.28
2019-05-06T01:49:13.894Z,8.18
2019-05-06T01:51:43.796Z,9.50
2019-05-06T01:54:14.182Z,7.50
2019-05-06T01:56:44.202Z,8.65
2019-05-06T01:59:14.019Z,8.45
2019-05-06T02:01:54.953Z,7.50
2019-05-06T02:04:13.846Z,6.95
2019-05-06T02:06:43.809Z,7.58
2019-05-06T02:09:14.602Z,7.58
2019-05-06T02:11:44.234Z,8.63
2019-05-06T02:14:13.977Z,8.05
2019-05-06T02:16:43.645Z,7.50
2019-05-06T02:19:11.979Z,7.55
2019-05-06T02:21:43.686Z,7.97
2019-05-06T02:24:13.582Z,7.87
2019-05-06T02:26:43.622Z,7.55
2019-05-06T02:29:15.192Z,7.75
2019-05-06T02:31:48.301Z,8.35
2019-05-06T02:37:08.103Z,7.62
2019-05-06T02:39:36.361Z,7.08
2019-05-06T02:42:06.338Z,8.78
2019-05-06T02:44:34.600Z,7.50
2019-05-06T02:47:23.005Z,7.90
2019-05-06T02:49:53.613Z,7.05
2019-05-06T02:52:22.892Z,8.13
2019-05-06T02:54:53.728Z,8.18
2019-05-06T02:57:23.810Z,7.25
2019-05-06T02:59:54.834Z,7.78
2019-05-06T03:02:38.729Z,8.73
2019-05-06T03:04:52.843Z,10.08
2019-05-06T03:07:23.301Z,10.45
2019-05-06T03:09:53.216Z,8.90
2019-05-06T03:12:22.823Z,7.87
2019-05-06T03:14:53.274Z,10.85
2019-05-06T03:17:23.530Z,7.08
2019-05-06T03:19:53.180Z,8.50
2019-05-06T03:22:27.799Z,7.40
2019-05-06T03:24:57.640Z,6.97
2019-05-06T03:27:25.898Z,7.58
2019-05-06T03:29:54.126Z,6.80
2019-05-06T03:32:29.799Z,7.87
2019-05-06T03:35:16.453Z,6.87
2019-05-06T03:37:23.934Z,7.70
2019-05-06T03:39:53.024Z,8.88
2019-05-06T03:42:22.984Z,7.85
2019-05-06T03:44:53.546Z,8.08
2019-05-06T03:47:23.689Z,6.78
2019-05-06T03:49:54.645Z,8.33
2019-05-06T03:52:23.402Z,8.40
2019-05-06T03:54:53.702Z,8.45
2019-05-06T03:57:23.147Z,7.35
2019-05-06T03:59:52.897Z,7.95
2019-05-06T04:02:24.139Z,7.10
2019-05-06T04:04:55.850Z,10.82
2019-05-06T04:07:23.387Z,14.43
2019-05-06T04:09:53.688Z,8.05
2019-05-06T04:12:23.417Z,7.85
2019-05-06T04:14:54.016Z,7.30
2019-05-06T04:17:27.720Z,6.80
2019-05-06T04:19:57.613Z,6.83
2019-05-06T04:22:44.126Z,8.15
2019-05-06T04:25:30.470Z,7.03
2019-05-06T04:28:02.929Z,10.75
2019-05-06T04:30:33.185Z,14.95
2019-05-06T04:33:03.113Z,17.30
2019-05-06T04:35:30.370Z,8.90
2019-05-06T04:37:58.613Z,9.03
2019-05-06T04:40:26.882Z,7.67
2019-05-06T04:42:55.467Z,6.20
2019-05-06T04:45:23.943Z,5.78
2019-05-06T04:47:53.823Z,6.62
2019-05-06T04:50:24.238Z,7.37
2019-05-06T04:53:05.680Z,7.08
2019-05-06T04:55:34.774Z,7.33
2019-05-06T04:58:05.637Z,6.70
2019-05-06T05:00:34.277Z,8.18
2019-05-06T05:03:03.007Z,8.53
2019-05-06T05:05:33.149Z,7.03
2019-05-06T05:08:02.472Z,9.13
2019-05-06T05:10:38.866Z,7.08
2019-05-06T05:13:08.765Z,9.10
2019-05-06T05:15:56.977Z,8.35
2019-05-06T05:18:31.860Z,8.00
2019-05-06T05:20:59.879Z,8.15
2019-05-06T05:23:28.118Z,9.10
2019-05-06T05:25:56.351Z,9.88
2019-05-06T05:28:25.051Z,8.33
2019-05-06T05:30:53.327Z,7.67
2019-05-06T05:33:22.467Z,8.63
2019-05-06T05:35:52.563Z,10.95
2019-05-06T05:38:22.771Z,8.68
2019-05-06T05:40:52.436Z,7.53
2019-05-06T05:43:34.815Z,9.83
2019-05-06T05:46:03.266Z,11.43
2019-05-06T05:48:33.143Z,7.75
2019-05-06T05:51:03.265Z,8.15
2019-05-06T05:53:32.923Z,7.58
2019-05-06T05:56:02.569Z,11.55
2019-05-06T05:58:33.012Z,8.63
2019-05-06T06:01:00.915Z,8.95
2019-05-06T06:03:29.213Z,8.48
2019-05-06T06:05:57.460Z,11.15
2019-05-06T06:08:25.716Z,8.78
2019-05-06T06:11:13.663Z,7.58
2019-05-06T06:13:43.361Z,8.18
2019-05-06T06:16:29.982Z,7.78
2019-05-06T06:18:59.980Z,8.18
2019-05-06T06:21:32.024Z,11.15
2019-05-06T06:24:12.567Z,9.98
2019-05-06T06:26:42.818Z,8.93
2019-05-06T06:29:12.512Z,8.33
2019-05-06T06:31:42.827Z,11.08
2019-05-06T06:34:24.624Z,12.60
2019-05-06T06:36:54.519Z,10.32
2019-05-06T06:39:32.544Z,10.10
2019-05-06T06:42:00.226Z,9.45
2019-05-06T06:44:33.115Z,6.87
2019-05-06T06:47:02.071Z,8.45
2019-05-06T06:49:32.743Z,8.25
2019-05-06T06:52:02.742Z,8.38
2019-05-06T06:54:32.317Z,8.00
2019-05-06T06:57:09.198Z,10.65
2019-05-06T06:59:49.295Z,8.35
2019-05-06T07:02:22.977Z,9.53
2019-05-06T07:04:58.844Z,8.35
2019-05-06T07:07:41.410Z,7.65
2019-05-06T07:09:58.730Z,5.70
2019-05-06T07:12:26.996Z,5.30
2019-05-06T07:15:02.284Z,4.92
2019-05-06T07:17:32.854Z,6.45
2019-05-06T07:20:18.805Z,6.97
2019-05-06T07:22:47.053Z,6.97
2019-05-06T07:25:15.309Z,9.88
2019-05-06T07:27:43.551Z,6.17
2019-05-06T07:30:12.524Z,6.15
2019-05-06T07:32:42.373Z,6.78
2019-05-06T07:35:12.730Z,8.08
2019-05-06T07:37:42.281Z,5.87
2019-05-06T07:40:12.518Z,8.50
2019-05-06T07:42:43.045Z,6.72
2019-05-06T07:45:13.143Z,5.97
2019-05-06T07:47:43.069Z,5.65
2019-05-06T07:50:13.040Z,5.70
2019-05-06T07:52:42.934Z,5.22
2019-05-06T07:55:11.992Z,8.78
2019-05-06T07:57:42.293Z,5.05
2019-05-06T08:00:12.453Z,4.50
2019-05-06T08:02:42.493Z,3.70
2019-05-06T08:05:12.609Z,4.35
2019-05-06T08:07:42.255Z,5.25
2019-05-06T08:10:10.347Z,5.12
2019-05-06T08:12:38.605Z,5.42
2019-05-06T08:15:07.480Z,5.97
2019-05-06T08:17:37.398Z,3.52
2019-05-06T08:20:06.804Z,2.72
2019-05-06T08:22:52.988Z,3.12
2019-05-06T08:25:25.934Z,2.85
2019-05-06T08:27:54.186Z,4.53
2019-05-06T08:30:23.096Z,4.30
2019-05-06T08:32:52.852Z,3.92
2019-05-06T08:35:22.770Z,3.85
2019-05-06T08:37:53.153Z,2.72
2019-05-06T08:40:22.734Z,4.12
2019-05-06T08:42:53.126Z,5.15
2019-05-06T08:45:22.048Z,4.67
2019-05-06T08:47:52.379Z,3.17
2019-05-06T08:50:38.786Z,2.90
2019-05-06T08:53:23.967Z,2.92
2019-05-06T08:55:52.873Z,5.28
2019-05-06T08:58:23.004Z,3.72
2019-05-06T09:00:54.480Z,5.08
2019-05-06T09:03:22.867Z,2.65
2019-05-06T09:05:54.107Z,2.83
2019-05-06T09:08:23.576Z,2.65
2019-05-06T09:10:52.401Z,2.37
2019-05-06T09:13:23.005Z,4.10
2019-05-06T09:15:52.535Z,4.62
2019-05-06T09:18:20.737Z,2.42
2019-05-06T09:20:50.663Z,3.50
2019-05-06T09:23:19.422Z,4.58
2019-05-06T09:25:47.787Z,4.87
2019-05-06T09:28:17.681Z,2.15
2019-05-06T09:30:47.592Z,6.45
2019-05-06T09:33:17.619Z,3.60
2019-05-06T09:35:45.928Z,3.47
2019-05-06T09:38:14.289Z,4.53
2019-05-06T09:40:43.330Z,3.60
2019-05-06T09:43:13.180Z,3.00
2019-05-06T09:45:42.556Z,2.60
2019-05-06T09:48:18.592Z,4.97
2019-05-06T09:50:48.230Z,5.37
2019-05-06T09:53:18.218Z,3.75
2019-05-06T09:55:52.285Z,3.70
2019-05-06T09:58:22.749Z,3.00
2019-05-06T10:00:52.356Z,3.08
2019-05-06T10:03:22.569Z,4.03
2019-05-06T10:05:52.927Z,4.97
2019-05-06T10:08:22.771Z,3.50
2019-05-06T10:10:56.839Z,3.42
2019-05-06T10:13:21.519Z,2.27
2019-05-06T10:15:51.937Z,3.98
2019-05-06T10:18:22.491Z,3.08
2019-05-06T10:20:50.495Z,4.70
2019-05-06T10:23:18.889Z,2.95
2019-05-06T10:25:47.188Z,3.72
2019-05-06T10:28:33.596Z,3.15
2019-05-06T10:31:03.893Z,4.12
2019-05-06T10:33:33.404Z,3.10
2019-05-06T10:36:05.099Z,2.92
2019-05-06T10:38:55.005Z,2.70
2019-05-06T10:41:32.799Z,3.02
2019-05-06T10:44:19.156Z,3.83
2019-05-06T10:46:47.474Z,6.25
2019-05-06T10:49:16.111Z,4.15
2019-05-06T10:51:48.763Z,4.12
2019-05-06T10:54:17.183Z,3.52
2019-05-06T10:56:53.764Z,5.50
2019-05-06T10:59:22.059Z,5.17
2019-05-06T11:01:52.592Z,3.33
2019-05-06T11:04:22.521Z,5.28
2019-05-06T11:06:52.471Z,3.70
2019-05-06T11:09:22.670Z,4.67
2019-05-06T11:11:51.571Z,3.77
2019-05-06T11:14:22.729Z,4.28
2019-05-06T11:16:50.656Z,3.95
2019-05-06T11:19:22.414Z,5.22
2019-05-06T11:22:08.980Z,4.15
2019-05-06T11:24:42.196Z,4.87
2019-05-06T11:27:28.981Z,5.72
2019-05-06T11:29:55.891Z,3.05
2019-05-06T11:32:44.461Z,4.90
2019-05-06T11:35:43.142Z,3.00
2019-05-06T11:38:13.208Z,3.67
2019-05-06T11:40:42.069Z,4.92
2019-05-06T11:43:11.991Z,4.12
2019-05-06T11:45:42.606Z,5.97
2019-05-06T11:48:14.374Z,3.33
2019-05-06T11:50:54.232Z,3.98
2019-05-06T11:53:26.615Z,4.97
2019-05-06T11:56:05.374Z,4.40
2019-05-06T11:58:49.156Z,3.20
2019-05-06T12:01:20.678Z,3.55
2019-05-06T12:03:49.135Z,2.90
2019-05-06T12:06:34.059Z,3.10
2019-05-06T12:11:58.148Z,5.15
2019-05-06T12:14:29.603Z,4.87
2019-05-06T12:20:03.112Z,3.95
2019-05-06T12:22:42.389Z,4.15
2019-05-06T12:25:23.607Z,6.10
2019-05-06T12:28:02.869Z,4.70
2019-05-06T12:30:42.803Z,5.05
2019-05-06T12:36:17.164Z,5.75
2019-05-06T12:39:15.575Z,4.78
2019-05-06T12:44:42.919Z,4.15
2019-05-06T12:50:02.777Z,3.02
2019-05-06T12:52:32.328Z,3.45
2019-05-06T12:55:18.254Z,4.70
2019-05-06T12:57:37.265Z,4.95
2019-05-06T13:00:07.371Z,4.62
2019-05-06T13:02:39.945Z,3.72
2019-05-06T13:05:08.278Z,3.60
2019-05-06T13:07:52.813Z,5.95
2019-05-06T13:10:39.094Z,4.62
2019-05-06T13:16:17.732Z,4.35
2019-05-06T13:18:56.811Z,4.40
2019-05-06T13:21:35.930Z,5.12
2019-05-06T13:24:32.574Z,4.87
2019-05-06T13:32:37.178Z,4.42
2019-05-06T13:35:17.681Z,6.17
2019-05-06T13:37:53.119Z,8.15
2019-05-06T13:40:18.968Z,5.22
2019-05-06T13:42:58.523Z,4.87
2019-05-06T13:51:34.262Z,9.00
2019-05-06T13:54:02.749Z,4.30
2019-05-06T13:56:33.329Z,4.97
2019-05-06T13:59:01.464Z,5.80
2019-05-06T14:01:44.265Z,7.17
2019-05-06T14:04:14.400Z,17.87
2019-05-06T14:06:43.381Z,6.87
2019-05-06T14:09:28.054Z,4.70
2019-05-06T14:11:42.156Z,6.10
2019-05-06T14:14:12.590Z,4.75
2019-05-06T14:16:42.632Z,3.67
2019-05-06T14:19:12.998Z,4.37
2019-05-06T14:21:43.241Z,4.92
2019-05-06T14:24:13.316Z,5.62
2019-05-06T14:26:44.801Z,4.47
2019-05-06T14:29:26.577Z,8.50
2019-05-06T14:31:56.802Z,4.00
2019-05-06T14:34:25.109Z,4.40
2019-05-06T14:36:53.578Z,5.42
2019-05-06T14:39:42.795Z,4.72
2019-05-06T14:41:57.219Z,6.37
2019-05-06T14:44:28.345Z,5.12
2019-05-06T14:47:07.390Z,3.92
2019-05-06T14:49:35.743Z,4.17
2019-05-06T14:52:04.053Z,4.00
2019-05-06T14:54:33.109Z,15.70
2019-05-06T14:57:12.346Z,29.32
2019-05-06T14:59:42.203Z,7.72
2019-05-06T15:02:13.066Z,6.15
2019-05-06T15:04:43.191Z,4.62
2019-05-06T15:07:12.746Z,5.42
2019-05-06T15:09:55.359Z,7.20
2019-05-06T15:12:12.901Z,9.50
2019-05-06T15:14:42.482Z,7.42
2019-05-06T15:17:10.781Z,6.08
2019-05-06T15:19:39.139Z,3.98
2019-05-06T15:22:07.391Z,5.25
2019-05-06T15:24:35.687Z,6.05
2019-05-06T15:27:03.963Z,3.98
2019-05-06T15:29:32.258Z,3.30
2019-05-06T15:32:02.721Z,9.15
2019-05-06T15:34:44.868Z,14.35
2019-05-06T15:37:14.809Z,8.30
2019-05-06T15:39:43.770Z,6.03
2019-05-06T15:42:12.916Z,7.35
2019-05-06T15:44:42.531Z,8.75
2019-05-06T15:47:13.038Z,12.53
2019-05-06T15:49:41.993Z,10.50
2019-05-06T15:52:12.401Z,9.68
2019-05-06T15:54:42.890Z,7.10
2019-05-06T15:57:10.828Z,8.70
2019-05-06T15:59:41.271Z,10.53
2019-05-06T16:02:09.065Z,5.95
2019-05-06T16:04:37.347Z,5.62
2019-05-06T16:07:05.635Z,5.50
2019-05-06T16:09:33.920Z,6.60
2019-05-06T16:12:03.052Z,7.33
2019-05-06T16:14:34.089Z,8.80
2019-05-06T16:17:23.597Z,6.97
2019-05-06T16:19:50.937Z,6.58
2019-05-06T16:22:19.177Z,5.03
2019-05-06T16:24:53.036Z,6.10
2019-05-06T16:27:22.962Z,7.28
2019-05-06T16:29:52.972Z,5.53
2019-05-06T16:32:21.999Z,5.72
2019-05-06T16:34:52.407Z,4.33
2019-05-06T16:37:22.277Z,6.45
2019-05-06T16:39:52.477Z,4.35
2019-05-06T16:42:22.436Z,5.87
2019-05-06T16:44:52.691Z,4.97
2019-05-06T16:47:38.227Z,4.60
2019-05-06T16:50:08.901Z,5.28
2019-05-06T16:52:37.148Z,6.47
2019-05-06T16:55:06.331Z,6.95
2019-05-06T16:57:34.663Z,4.80
2019-05-06T17:00:05.562Z,5.08
2019-05-06T17:02:57.919Z,5.10
2019-05-06T17:05:37.379Z,6.00
2019-05-06T17:08:05.623Z,4.47
2019-05-06T17:10:33.868Z,4.17
2019-05-06T17:13:02.920Z,5.28
2019-05-06T17:15:32.173Z,4.00
2019-05-06T17:18:02.850Z,6.25
2019-05-06T17:20:32.584Z,12.00
2019-05-06T17:23:02.920Z,14.15
2019-05-06T17:25:32.904Z,5.78
2019-05-06T17:28:02.492Z,4.55
2019-05-06T17:30:50.982Z,7.45
2019-05-06T17:33:26.458Z,12.45
2019-05-06T17:35:54.719Z,14.10
2019-05-06T17:38:24.607Z,11.68
2019-05-06T17:40:52.842Z,7.90
2019-05-06T17:43:22.484Z,6.87
2019-05-06T17:46:01.976Z,6.95
2019-05-06T17:48:30.155Z,12.58
2019-05-06T17:51:16.282Z,25.02
2019-05-06T17:53:49.175Z,27.30
2019-05-06T17:56:17.419Z,13.25
2019-05-06T17:58:45.670Z,11.08
2019-05-06T18:01:15.570Z,16.75
2019-05-06T18:03:43.827Z,22.70
2019-05-06T18:06:14.154Z,17.48
2019-05-06T18:08:43.297Z,10.90
2019-05-06T18:11:12.899Z,8.80
2019-05-06T18:13:41.428Z,7.92
2019-05-06T18:16:09.688Z,9.23
2019-05-06T18:18:37.958Z,7.80
2019-05-06T18:21:06.218Z,7.12
2019-05-06T18:23:34.523Z,9.63
2019-05-06T18:26:03.242Z,10.50
2019-05-06T18:28:32.689Z,9.60
2019-05-06T18:31:03.145Z,10.80
2019-05-06T18:33:32.619Z,8.88
2019-05-06T18:36:02.567Z,10.63
2019-05-06T18:38:33.515Z,12.28
2019-05-06T18:41:01.995Z,9.48
2019-05-06T18:43:33.203Z,16.32
2019-05-06T18:46:02.804Z,11.85
2019-05-06T18:48:34.498Z,12.15
2019-05-06T18:51:03.009Z,11.70
2019-05-06T18:53:37.311Z,10.05
2019-05-06T18:56:05.555Z,10.48
2019-05-06T18:58:33.825Z,10.63
2019-05-06T19:01:03.953Z,10.88
2019-05-06T19:03:36.440Z,9.93
2019-05-06T19:06:04.672Z,10.80
2019-05-06T19:08:43.605Z,12.00
2019-05-06T19:11:13.626Z,12.33
2019-05-06T19:13:41.884Z,11.68
2019-05-06T19:16:10.331Z,13.25
2019-05-06T19:19:06.016Z,13.35
2019-05-06T19:22:13.771Z,14.05
2019-05-06T19:34:14.046Z,12.88
2019-05-06T19:36:46.944Z,19.73
2019-05-06T19:39:15.387Z,12.70
2019-05-06T19:41:43.641Z,11.08
2019-05-06T19:44:12.864Z,13.10
2019-05-06T19:46:42.418Z,13.55
2019-05-06T19:49:10.781Z,11.88
2019-05-06T19:51:39.070Z,11.97
2019-05-06T19:54:07.331Z,13.43
2019-05-06T19:56:35.636Z,12.80
2019-05-06T19:59:03.887Z,11.78
2019-05-06T20:01:32.373Z,12.88
2019-05-06T20:04:02.571Z,11.43
2019-05-06T20:06:32.483Z,11.22
2019-05-06T20:09:02.446Z,12.23
2019-05-06T20:11:38.369Z,13.80
2019-05-06T20:14:06.625Z,11.43
2019-05-06T20:16:34.885Z,12.98
2019-05-06T20:19:03.137Z,10.70
2019-05-06T20:21:32.841Z,11.75
2019-05-06T20:24:02.288Z,14.45
2019-05-06T20:26:32.447Z,11.35
2019-05-06T20:29:02.174Z,9.85
2019-05-06T20:31:32.146Z,13.58
2019-05-06T20:34:02.287Z,11.38
2019-05-06T20:36:33.053Z,12.47
2019-05-06T20:42:04.606Z,9.78
2019-05-06T20:47:25.520Z,9.83
2019-05-06T20:49:53.837Z,9.95
2019-05-06T20:52:30.475Z,12.50
2019-05-06T20:54:58.456Z,11.93
2019-05-06T20:57:38.569Z,11.12
2019-05-06T21:00:19.081Z,13.13
2019-05-06T21:02:47.367Z,10.65
2019-05-06T21:05:15.618Z,11.15
2019-05-06T21:07:43.894Z,11.95
2019-05-06T21:10:12.727Z,9.65
2019-05-06T21:12:42.227Z,10.58
2019-05-06T21:15:13.174Z,10.32
2019-05-06T21:17:41.956Z,10.50
2019-05-06T21:20:10.465Z,11.25
2019-05-06T21:22:38.780Z,9.68
2019-05-06T21:25:07.944Z,11.18
2019-05-06T21:27:36.850Z,9.63
2019-05-06T21:30:07.877Z,11.88
2019-05-06T21:32:36.136Z,7.92
2019-05-06T21:35:05.672Z,11.25
2019-05-06T21:45:46.475Z,9.15
2019-05-06T22:20:03.210Z,6.83
2019-05-06T22:38:21.707Z,8.50
2019-05-06T22:49:32.158Z,9.25
2019-05-06T22:55:32.945Z,7.50
2019-05-06T22:57:46.791Z,8.53
2019-05-06T23:06:17.759Z,7.92
2019-05-06T23:09:03.973Z,6.90
2019-05-06T23:20:15.313Z,9.00
2019-05-06T23:23:06.774Z,6.70
2019-05-06T23:28:45.690Z,7.33
2019-05-06T23:34:46.877Z,5.83
2019-05-06T23:37:30.576Z,8.90
2019-05-06T23:54:58.608Z,6.28
